Time;durP1;ratioP1;P1;durP2;ratioP2;P2;SDS_P1;SDS_P2;PMS_P1;PMS_P2;Temp;Humidity;BMP_temperature;BMP_pressure;BME280_temperature;BME280_humidity;BME280_pressure;Samples;Min_cycle;Max_cycle;Signal;HPM_P1;HPM_P2
2021/01/31 00:02:25;;;;;;;15.63;3.92;;;;;;;3.84;79.55;99917.34;5007198;28;20034;-48
2021/01/31 00:04:52;;;;;;;9.45;3.20;;;;;;;3.84;79.59;99909.94;5007694;28;20377;-50
2021/01/31 00:07:19;;;;;;;11.00;3.10;;;;;;;3.81;79.69;99905.13;5006193;28;20454;-53
2021/01/31 00:09:49;;;;;;;6.97;2.50;;;;;;;3.79;79.39;99910.09;5012932;28;20443;-48
2021/01/31 00:12:16;;;;;;;13.27;3.28;;;;;;;3.77;79.64;99906.06;5008460;28;20133;-56
2021/01/31 00:14:43;;;;;;;11.77;3.65;;;;;;;3.72;79.47;99896.06;5025400;28;20095;-48
2021/01/31 00:17:09;;;;;;;9.32;3.13;;;;;;;3.71;79.41;99888.97;5019295;28;20088;-51
2021/01/31 00:19:36;;;;;;;5.82;2.13;;;;;;;3.65;79.12;99882.06;5015882;28;20112;-50
2021/01/31 00:22:02;;;;;;;16.40;3.13;;;;;;;3.62;79.27;99867.09;5013115;28;20411;-50
2021/01/31 00:24:29;;;;;;;8.23;2.70;;;;;;;3.59;79.15;99855.97;5013972;28;20073;-53
2021/01/31 00:26:57;;;;;;;13.30;4.30;;;;;;;3.54;79.37;99859.69;5013980;28;20066;-48
2021/01/31 00:29:24;;;;;;;16.23;3.25;;;;;;;3.52;80.04;99858.41;5014292;28;20053;-50
2021/01/31 00:31:51;;;;;;;8.20;2.80;;;;;;;3.48;79.77;99854.66;5014377;28;20089;-52
2021/01/31 00:34:21;;;;;;;10.88;2.80;;;;;;;3.43;79.55;99860.28;5014541;28;20124;-50
2021/01/31 00:36:48;;;;;;;13.27;3.05;;;;;;;3.41;79.80;99862.56;5013473;28;20042;-48
2021/01/31 00:39:15;;;;;;;13.85;2.90;;;;;;;3.39;79.76;99860.13;5014114;28;20107;-52
2021/01/31 00:41:43;;;;;;;15.25;4.22;;;;;;;3.40;79.82;99866.41;5013495;28;20450;-48
2021/01/31 00:44:10;;;;;;;7.80;2.85;;;;;;;3.38;80.03;99854.97;5014189;28;20096;-53
2021/01/31 00:46:39;;;;;;;9.40;3.28;;;;;;;3.34;79.99;99863.00;5012223;28;20038;-49
2021/01/31 00:49:07;;;;;;;7.35;2.20;;;;;;;3.34;79.94;99871.22;5014139;28;20492;-49
2021/01/31 00:51:34;;;;;;;6.90;2.78;;;;;;;3.33;80.08;99858.69;5013796;28;20050;-49
2021/01/31 00:54:00;;;;;;;11.82;2.88;;;;;;;3.35;80.23;99872.03;5013648;28;20073;-51
2021/01/31 00:56:26;;;;;;;8.88;3.25;;;;;;;3.34;80.67;99859.47;5019454;28;20049;-50
2021/01/31 00:58:52;;;;;;;12.60;2.70;;;;;;;3.35;80.38;99861.09;5028037;28;20049;-49
2021/01/31 01:01:19;;;;;;;9.75;2.60;;;;;;;3.33;80.46;99852.41;5015768;28;20053;-52
2021/01/31 01:03:46;;;;;;;29.65;11.27;;;;;;;3.32;80.04;99853.50;5016775;28;20111;-53
2021/01/31 01:06:12;;;;;;;15.43;4.55;;;;;;;3.32;80.19;99856.25;5023928;28;20128;-50
2021/01/31 01:08:39;;;;;;;9.88;2.33;;;;;;;3.34;80.48;99849.34;5020950;28;20037;-48
2021/01/31 01:11:05;;;;;;;6.60;2.65;;;;;;;3.32;80.23;99848.84;5015863;28;20049;-49
2021/01/31 01:13:31;;;;;;;14.70;2.67;;;;;;;3.34;80.46;99834.84;5012157;28;20117;-54
2021/01/31 01:15:58;;;;;;;11.60;2.50;;;;;;;3.35;80.11;99825.53;5012854;28;20123;-50
2021/01/31 01:18:24;;;;;;;9.98;3.22;;;;;;;3.37;80.17;99826.00;5013248;28;20054;-50
2021/01/31 01:20:51;;;;;;;13.80;3.53;;;;;;;3.36;80.22;99835.34;5019690;28;20045;-48
2021/01/31 01:23:17;;;;;;;6.47;2.08;;;;;;;3.35;80.39;99840.00;5015589;28;20484;-50
2021/01/31 01:25:45;;;;;;;5.30;2.03;;;;;;;3.36;80.33;99836.13;5026183;28;20041;-51
2021/01/31 01:28:13;;;;;;;9.68;3.70;;;;;;;3.35;80.44;99829.06;5027334;28;20495;-48
2021/01/31 01:30:40;;;;;;;8.63;2.17;;;;;;;3.40;80.47;99844.50;5017643;28;20129;-49
2021/01/31 01:33:06;;;;;;;7.20;2.00;;;;;;;3.38;80.50;99838.56;5016972;28;20066;-49
2021/01/31 01:35:33;;;;;;;10.70;2.20;;;;;;;3.39;80.68;99831.97;5022202;28;20046;-51
2021/01/31 01:38:01;;;;;;;11.13;2.25;;;;;;;3.40;80.90;99830.84;5023945;28;20038;-51
2021/01/31 01:40:34;;;;;;;12.93;2.33;;;;;;;3.38;80.42;99827.63;5011160;28;20073;-49
2021/01/31 01:43:02;;;;;;;6.38;2.08;;;;;;;3.38;80.67;99816.69;5019244;28;20054;-48
2021/01/31 01:45:28;;;;;;;8.70;2.65;;;;;;;3.38;80.42;99819.41;5013527;28;20038;-49
2021/01/31 01:47:59;;;;;;;11.93;2.92;;;;;;;3.38;80.37;99811.22;5011293;28;20859;-48
2021/01/31 01:50:40;;;;;;;10.60;2.42;;;;;;;3.39;80.52;99812.84;5017347;28;20081;-54
2021/01/31 01:53:08;;;;;;;6.18;1.80;;;;;;;3.39;80.07;99807.34;5013939;28;20072;-48
2021/01/31 01:55:47;;;;;;;5.35;1.58;;;;;;;3.36;78.70;99818.94;5024106;28;20050;-52
2021/01/31 01:58:17;;;;;;;4.85;1.17;;;;;;;3.35;78.82;99800.91;5018460;28;20050;-50
2021/01/31 02:00:45;;;;;;;1.95;1.00;;;;;;;3.36;79.10;99792.38;5011540;28;20102;-49
2021/01/31 02:03:33;;;;;;;7.82;1.40;;;;;;;3.32;77.98;99785.13;5029050;28;20076;-51
2021/01/31 02:06:04;;;;;;;5.00;1.23;;;;;;;3.33;78.37;99778.53;5021445;28;20041;-51
2021/01/31 02:08:30;;;;;;;9.90;1.75;;;;;;;3.30;78.03;99770.97;5024607;28;20084;-48
2021/01/31 02:10:56;;;;;;;7.38;1.55;;;;;;;3.30;78.05;99768.22;4998897;28;20045;-52
2021/01/31 02:13:23;;;;;;;8.90;2.08;;;;;;;3.31;77.80;99769.84;5016629;28;20578;-50
2021/01/31 02:15:52;;;;;;;6.45;2.13;;;;;;;3.31;77.73;99756.19;5014413;28;20112;-48
2021/01/31 02:18:34;;;;;;;7.70;1.27;;;;;;;3.33;78.16;99745.72;5030921;28;20132;-52
2021/01/31 02:21:47;;;;;;;6.68;1.83;;;;;;;3.34;75.54;99744.56;5015199;28;20163;-50
2021/01/31 02:24:50;;;;;;;6.53;1.17;;;;;;;3.34;75.32;99739.91;5014227;28;20403;-50
2021/01/31 02:27:37;;;;;;;6.90;1.65;;;;;;;3.39;76.98;99738.97;4992453;28;20034;-50
2021/01/31 02:30:09;;;;;;;4.50;0.95;;;;;;;3.40;76.95;99738.63;5018797;28;20030;-49
2021/01/31 02:32:41;;;;;;;6.03;1.40;;;;;;;3.41;77.04;99742.19;4992641;28;20092;-50
2021/01/31 02:35:14;;;;;;;4.00;1.20;;;;;;;3.41;76.56;99733.97;5014435;28;20127;-49
2021/01/31 02:37:51;;;;;;;3.78;1.63;;;;;;;3.42;75.79;99724.63;5024370;28;20127;-48
2021/01/31 02:40:45;;;;;;;5.10;2.08;;;;;;;3.41;74.87;99732.03;5017570;28;20073;-50
2021/01/31 02:43:15;;;;;;;2.78;0.77;;;;;;;3.42;75.89;99733.63;5029965;28;20045;-49
2021/01/31 02:45:58;;;;;;;6.97;1.02;;;;;;;3.41;75.11;99745.72;5015115;28;20033;-52
2021/01/31 02:48:33;;;;;;;5.50;1.25;;;;;;;3.40;75.82;99726.88;5024449;28;20661;-49
2021/01/31 02:51:20;;;;;;;5.38;1.83;;;;;;;3.38;74.71;99729.13;5003047;28;20037;-50
2021/01/31 02:54:05;;;;;;;7.32;1.17;;;;;;;3.34;73.65;99706.28;5021939;28;20091;-53
2021/01/31 02:56:39;;;;;;;2.10;0.82;;;;;;;3.30;74.67;99702.59;5023240;28;20073;-49
2021/01/31 02:59:11;;;;;;;3.92;1.48;;;;;;;3.28;75.06;99707.59;5014711;28;20049;-49
2021/01/31 03:01:54;;;;;;;6.38;1.75;;;;;;;3.23;74.59;99715.94;5005814;28;20384;-52
2021/01/31 03:04:41;;;;;;;7.20;1.52;;;;;;;3.18;73.61;99711.44;5027526;28;20636;-49
2021/01/31 03:07:17;;;;;;;3.83;1.08;;;;;;;3.15;73.98;99703.06;5027220;28;20046;-49
2021/01/31 03:09:58;;;;;;;6.72;1.30;;;;;;;3.11;74.42;99708.38;5023381;28;20399;-51
2021/01/31 03:12:34;;;;;;;10.95;1.33;;;;;;;3.12;74.88;99709.19;5022221;28;20041;-50
2021/01/31 03:15:07;;;;;;;7.65;1.58;;;;;;;3.10;74.78;99705.97;5017417;28;20038;-48
2021/01/31 03:17:42;;;;;;;4.68;1.23;;;;;;;3.06;74.51;99695.66;5030901;28;20046;-52
2021/01/31 03:20:17;;;;;;;6.30;1.25;;;;;;;3.10;74.24;99700.50;5018605;28;20053;-49
2021/01/31 03:22:57;;;;;;;4.85;1.45;;;;;;;3.12;74.32;99692.78;5014852;28;20037;-48
2021/01/31 03:25:49;;;;;;;8.90;1.17;;;;;;;3.14;74.38;99687.78;5019850;28;20077;-49
2021/01/31 03:28:16;;;;;;;3.63;1.05;;;;;;;3.17;74.31;99678.94;5011205;28;20455;-51
2021/01/31 03:30:42;;;;;;;2.40;1.08;;;;;;;3.21;75.29;99677.97;5009730;28;20088;-49
2021/01/31 03:33:35;;;;;;;4.03;1.35;;;;;;;3.21;74.90;99674.41;5009928;28;20041;-49
2021/01/31 03:36:03;;;;;;;7.63;1.40;;;;;;;3.23;74.65;99661.25;5011149;28;20152;-50
2021/01/31 03:38:52;;;;;;;3.47;1.55;;;;;;;3.23;73.89;99650.31;5019387;28;20085;-52
2021/01/31 03:41:22;;;;;;;4.93;0.88;;;;;;;3.24;74.14;99647.25;5009895;28;20045;-49
2021/01/31 03:43:49;;;;;;;9.27;1.45;;;;;;;3.27;74.50;99646.59;5012399;28;20136;-51
2021/01/31 03:46:44;;;;;;;3.90;1.02;;;;;;;3.28;74.42;99653.69;5017778;28;20124;-50
2021/01/31 03:49:22;;;;;;;6.75;0.95;;;;;;;3.29;74.97;99646.25;5011278;28;20432;-49
2021/01/31 03:51:48;;;;;;;5.97;1.88;;;;;;;3.31;74.94;99646.75;5016371;28;20135;-49
2021/01/31 03:54:16;;;;;;;5.68;1.40;;;;;;;3.31;74.86;99646.75;5014620;28;20046;-48
2021/01/31 03:56:48;;;;;;;5.03;1.63;;;;;;;3.32;74.69;99649.16;5022036;28;20152;-50
2021/01/31 03:59:21;;;;;;;14.13;2.38;;;;;;;3.33;74.46;99644.50;5016022;28;20056;-49
2021/01/31 04:01:50;;;;;;;9.98;1.85;;;;;;;3.36;74.76;99649.34;5005523;28;20046;-48
2021/01/31 04:04:17;;;;;;;7.45;0.98;;;;;;;3.36;74.88;99652.84;5014805;28;20099;-47
2021/01/31 04:06:50;;;;;;;6.15;0.77;;;;;;;3.36;74.28;99643.84;5030420;28;20129;-51
2021/01/31 04:09:20;;;;;;;2.80;1.13;;;;;;;3.40;74.79;99647.53;5014325;28;20049;-54
2021/01/31 04:11:47;;;;;;;8.50;1.38;;;;;;;3.39;74.66;99645.94;5015568;28;20549;-52
2021/01/31 04:14:16;;;;;;;6.22;1.30;;;;;;;3.40;75.20;99640.13;5000099;28;20069;-48
2021/01/31 04:16:49;;;;;;;15.68;2.80;;;;;;;3.42;75.09;99631.59;5034149;28;20558;-49
2021/01/31 04:19:17;;;;;;;3.28;1.02;;;;;;;3.40;75.23;99639.34;5033912;28;20136;-48
2021/01/31 04:21:44;;;;;;;8.65;1.75;;;;;;;3.41;75.27;99627.28;5022104;28;20121;-49
2021/01/31 04:24:11;;;;;;;5.43;1.35;;;;;;;3.40;75.33;99618.25;5024048;28;20065;-50
2021/01/31 04:26:38;;;;;;;5.35;1.25;;;;;;;3.40;75.38;99609.25;5021384;28;20042;-50
2021/01/31 04:29:05;;;;;;;6.32;1.90;;;;;;;3.41;75.28;99606.19;5015020;28;20042;-50
2021/01/31 04:31:32;;;;;;;8.38;1.25;;;;;;;3.42;75.55;99590.56;5027088;28;20057;-50
2021/01/31 04:33:58;;;;;;;4.95;1.23;;;;;;;3.42;75.57;99568.66;5030383;28;20099;-48
2021/01/31 04:36:26;;;;;;;3.40;1.45;;;;;;;3.43;75.78;99564.81;5027939;28;20050;-47
2021/01/31 04:38:53;;;;;;;3.95;1.20;;;;;;;3.43;75.80;99551.94;5017197;28;20069;-51
2021/01/31 04:41:20;;;;;;;9.77;1.55;;;;;;;3.43;75.57;99556.63;5017417;28;20054;-49
2021/01/31 04:43:49;;;;;;;11.23;2.15;;;;;;;3.43;75.91;99565.63;5013892;28;20148;-48
2021/01/31 04:46:21;;;;;;;5.45;1.27;;;;;;;3.44;75.48;99558.22;5029454;28;20049;-57
2021/01/31 04:49:25;;;;;;;5.15;1.60;;;;;;;3.43;75.16;99556.63;5016336;28;20076;-50
2021/01/31 04:52:13;;;;;;;7.90;1.88;;;;;;;3.41;73.25;99553.41;4985446;28;20129;-47
2021/01/31 04:54:46;;;;;;;3.25;1.27;;;;;;;3.41;73.41;99556.13;4976122;28;20055;-49
2021/01/31 04:57:13;;;;;;;3.03;0.82;;;;;;;3.41;72.97;99553.41;5013124;28;20054;-52
2021/01/31 04:59:47;;;;;;;5.22;1.17;;;;;;;3.40;72.74;99554.53;5011923;28;20041;-51
2021/01/31 05:02:33;;;;;;;4.65;0.88;;;;;;;3.40;71.92;99557.25;5025054;28;20128;-50
2021/01/31 05:05:00;;;;;;;4.63;1.90;;;;;;;3.40;72.85;99557.25;5033073;28;20077;-48
2021/01/31 05:07:46;;;;;;;5.70;1.52;;;;;;;3.38;71.86;99545.84;5016348;28;20041;-48
2021/01/31 05:10:12;;;;;;;4.20;0.95;;;;;;;3.39;72.18;99552.94;5014472;28;20085;-54
2021/01/31 05:12:49;;;;;;;3.97;1.05;;;;;;;3.38;71.63;99543.91;4995172;28;20500;-50
2021/01/31 05:15:27;;;;;;;5.85;1.55;;;;;;;3.38;71.75;99540.38;5014010;28;20045;-50
2021/01/31 05:17:57;;;;;;;3.75;0.95;;;;;;;3.40;72.59;99535.38;5015362;28;20088;-50
2021/01/31 05:20:29;;;;;;;10.60;1.67;;;;;;;3.38;72.43;99534.91;4996875;28;20427;-51
2021/01/31 05:22:58;;;;;;;10.75;2.70;;;;;;;3.39;72.33;99544.72;5017149;28;20221;-52
2021/01/31 05:25:32;;;;;;;7.03;1.48;;;;;;;3.40;72.84;99540.84;5013197;28;20053;-49
2021/01/31 05:28:03;;;;;;;9.30;1.83;;;;;;;3.40;72.84;99546.31;5020769;28;20495;-52
2021/01/31 05:30:32;;;;;;;4.22;1.10;;;;;;;3.41;73.39;99526.84;5005555;28;20228;-51
2021/01/31 05:33:17;;;;;;;11.73;3.60;;;;;;;3.40;73.49;99532.63;5023005;28;20052;-50
2021/01/31 05:35:47;;;;;;;5.28;1.45;;;;;;;3.40;73.75;99536.19;5027715;28;20557;-51
2021/01/31 05:38:34;;;;;;;7.13;1.55;;;;;;;3.39;74.07;99514.63;5013145;28;20064;-49
2021/01/31 05:41:21;;;;;;;15.98;2.60;;;;;;;3.40;74.42;99508.03;5027960;28;20132;-51
2021/01/31 05:43:59;;;;;;;7.50;2.92;;;;;;;3.38;74.47;99491.94;5007725;28;20061;-50
2021/01/31 05:46:38;;;;;;;7.82;1.48;;;;;;;3.39;74.48;99490.03;5012801;28;20100;-58
2021/01/31 05:49:08;;;;;;;9.85;1.77;;;;;;;3.38;74.92;99477.47;5022091;28;20160;-51
2021/01/31 05:51:35;;;;;;;12.80;1.90;;;;;;;3.40;74.69;99464.25;5021326;28;20121;-53
2021/01/31 05:54:18;;;;;;;5.15;1.73;;;;;;;3.38;75.29;99458.31;5021776;28;20570;-53
2021/01/31 05:56:45;;;;;;;7.70;1.85;;;;;;;3.40;75.28;99442.38;5018487;28;20041;-51
2021/01/31 05:59:14;;;;;;;8.98;1.63;;;;;;;3.39;75.30;99440.78;5029807;28;20518;-51
2021/01/31 06:02:19;;;;;;;8.65;1.67;;;;;;;3.39;75.98;99443.50;5024619;28;20072;-52
2021/01/31 06:04:45;;;;;;;6.75;1.85;;;;;;;3.40;75.56;99436.88;5019759;28;20084;-50
2021/01/31 06:07:17;;;;;;;9.80;2.35;;;;;;;3.39;76.09;99435.31;5030145;28;20132;-54
2021/01/31 06:09:49;;;;;;;7.60;2.40;;;;;;;3.38;75.89;99434.50;5014482;28;20567;-53
2021/01/31 06:12:21;;;;;;;6.35;2.05;;;;;;;3.39;76.00;99436.09;5020416;28;20061;-51
2021/01/31 06:15:03;;;;;;;;;;;;;;;3.36;76.09;99414.84;5017711;28;20500;-52
2021/01/31 06:17:32;;;;;;;7.57;2.70;;;;;;;3.37;76.17;99411.00;5023926;28;20263;-51
2021/01/31 06:20:16;;;;;;;7.13;1.88;;;;;;;3.37;76.13;99408.25;5020036;28;20038;-53
2021/01/31 06:22:50;;;;;;;14.35;3.17;;;;;;;3.39;76.30;99402.47;5012519;28;20045;-49
2021/01/31 06:25:33;;;;;;;11.95;1.92;;;;;;;3.38;76.46;99395.41;5012014;28;20111;-50
2021/01/31 06:28:08;;;;;;;9.18;2.00;;;;;;;3.36;76.45;99395.72;5021507;28;20045;-54
2021/01/31 06:30:38;;;;;;;6.45;2.47;;;;;;;3.37;76.46;99391.03;5021383;28;20100;-54
2021/01/31 06:33:05;;;;;;;4.45;2.03;;;;;;;3.36;76.55;99394.94;5011111;28;20038;-50
2021/01/31 06:35:31;;;;;;;4.28;1.77;;;;;;;3.35;75.87;99379.63;4994177;28;20041;-51
2021/01/31 06:38:09;;;;;;;7.63;1.63;;;;;;;3.37;75.82;99380.09;5011060;28;20059;-53
2021/01/31 06:41:00;;;;;;;5.05;0.95;;;;;;;3.35;76.04;99380.44;5011940;28;20074;-55
2021/01/31 06:43:32;;;;;;;11.88;1.42;;;;;;;3.36;76.09;99375.78;5015797;28;20104;-52
2021/01/31 06:46:37;;;;;;;5.30;1.30;;;;;;;3.34;74.59;99378.03;5012199;28;20067;-54
2021/01/31 06:49:24;;;;;;;7.45;1.42;;;;;;;3.35;75.02;99365.97;4976078;28;20077;-53
2021/01/31 06:51:59;;;;;;;7.43;1.30;;;;;;;3.37;75.42;99356.28;5012015;28;20160;-52
2021/01/31 06:54:41;;;;;;;3.60;1.40;;;;;;;3.37;75.67;99347.28;5013912;28;20049;-52
2021/01/31 06:57:29;;;;;;;5.55;1.67;;;;;;;3.36;75.13;99349.19;5023637;28;20064;-50
2021/01/31 07:00:10;;;;;;;11.05;1.10;;;;;;;3.35;74.64;99347.63;5012373;28;20137;-52
2021/01/31 07:03:15;;;;;;;8.77;1.70;;;;;;;3.35;74.88;99341.34;5015695;28;20076;-51
2021/01/31 07:05:58;;;;;;;6.43;1.30;;;;;;;3.37;74.76;99333.59;4992196;28;20483;-49
2021/01/31 07:08:50;;;;;;;6.68;1.10;;;;;;;3.38;75.55;99329.75;5015806;28;20069;-50
2021/01/31 07:11:27;;;;;;;3.38;1.17;;;;;;;3.39;75.34;99314.94;5018377;28;20128;-52
2021/01/31 07:14:08;;;;;;;4.97;1.40;;;;;;;3.37;75.27;99318.00;5024105;28;20129;-49
2021/01/31 07:16:41;;;;;;;5.18;2.03;;;;;;;3.39;75.82;99314.94;5013286;28;20057;-54
2021/01/31 07:19:27;;;;;;;4.07;1.23;;;;;;;3.39;75.72;99312.97;5011651;28;20053;-54
2021/01/31 07:22:19;;;;;;;10.20;1.38;;;;;;;3.39;75.60;99310.25;5018558;28;20380;-49
2021/01/31 07:25:12;;;;;;;6.07;2.05;;;;;;;3.38;75.89;99292.25;5000538;28;20455;-50
2021/01/31 07:27:45;;;;;;;3.95;1.23;;;;;;;3.41;76.02;99307.19;5024552;28;20054;-52
2021/01/31 07:30:19;;;;;;;9.20;1.40;;;;;;;3.40;75.97;99289.97;5015438;28;20093;-51
2021/01/31 07:33:04;;;;;;;7.70;1.90;;;;;;;3.37;76.10;99300.78;5018899;28;20058;-52
2021/01/31 07:35:37;;;;;;;10.18;2.72;;;;;;;3.37;76.27;99300.78;5019677;28;20132;-50
2021/01/31 07:38:15;;;;;;;21.15;2.80;;;;;;;3.36;76.68;99302.69;5016125;28;20057;-50
2021/01/31 07:40:45;;;;;;;8.30;2.15;;;;;;;3.33;76.47;99294.38;5015493;28;20053;-50
2021/01/31 07:43:16;;;;;;;13.48;1.70;;;;;;;3.30;76.98;99289.56;5019085;28;20054;-52
2021/01/31 07:45:43;;;;;;;9.52;1.60;;;;;;;3.29;76.65;99285.22;5017704;28;20041;-51
2021/01/31 07:48:34;;;;;;;4.30;2.10;;;;;;;3.27;77.55;99273.81;5022661;28;20492;-49
2021/01/31 07:51:03;;;;;;;13.55;1.42;;;;;;;3.27;77.31;99282.03;5013412;28;20046;-49
2021/01/31 07:53:34;;;;;;;12.00;1.67;;;;;;;3.24;77.43;99275.28;5018435;28;20169;-50
2021/01/31 07:56:35;;;;;;;9.45;1.23;;;;;;;3.23;77.10;99275.63;5014823;28;20081;-51
2021/01/31 07:59:08;;;;;;;8.60;1.43;;;;;;;3.20;76.69;99274.38;5021644;28;20050;-54
2021/01/31 08:01:35;;;;;;;;;;;;;;;3.15;76.54;99276.50;5014070;28;20057;-51
2021/01/31 08:04:17;;;;;;;20.95;3.10;;;;;;;3.12;77.35;99267.03;5015476;28;19925;-51
2021/01/31 08:06:53;;;;;;;6.55;1.45;;;;;;;3.11;77.03;99267.34;4995898;28;20054;-52
2021/01/31 08:09:31;;;;;;;6.10;2.33;;;;;;;3.05;77.90;99278.47;5015582;28;20080;-51
2021/01/31 08:12:08;;;;;;;9.70;1.80;;;;;;;2.99;78.23;99274.31;5031102;28;20119;-48
2021/01/31 08:15:03;;;;;;;6.63;1.70;;;;;;;2.95;78.57;99269.84;5033848;28;20042;-51
2021/01/31 08:17:54;;;;;;;10.88;2.10;;;;;;;2.89;79.48;99274.69;5014845;28;20065;-52
2021/01/31 08:20:27;;;;;;;4.60;1.67;;;;;;;2.86;79.43;99275.34;5020820;28;20041;-53
2021/01/31 08:22:59;;;;;;;7.47;2.05;;;;;;;2.82;79.82;99271.69;5012896;28;20077;-52
2021/01/31 08:25:30;;;;;;;12.63;2.60;;;;;;;2.76;79.89;99273.00;4998458;28;20041;-53
2021/01/31 08:28:03;;;;;;;11.20;1.77;;;;;;;2.70;80.51;99270.81;5014590;28;20570;-53
2021/01/31 08:30:31;;;;;;;;;;;;;;;2.61;81.63;99265.38;5024289;28;20092;-51
2021/01/31 08:32:57;;;;;;;6.57;2.20;;;;;;;2.56;80.53;99257.38;5014496;28;19957;-52
2021/01/31 08:35:26;;;;;;;8.52;2.05;;;;;;;2.56;80.71;99259.28;5026599;28;20103;-53
2021/01/31 08:38:24;;;;;;;5.82;3.22;;;;;;;2.51;82.25;99245.81;5014928;28;20049;-53
2021/01/31 08:43:49;;;;;;;9.77;2.50;;;;;;;2.42;82.70;99243.13;5013547;28;20053;-50
2021/01/31 08:46:15;;;;;;;5.68;2.10;;;;;;;2.43;81.91;99239.25;4994428;28;20047;-53
2021/01/31 08:48:52;;;;;;;14.52;3.95;;;;;;;2.44;82.89;99233.47;5001447;28;20045;-51
2021/01/31 08:51:25;;;;;;;11.00;1.95;;;;;;;2.44;82.53;99229.94;5013965;28;20503;-53
2021/01/31 08:54:08;;;;;;;5.38;1.83;;;;;;;2.43;83.08;99217.41;5002998;28;20046;-53
2021/01/31 08:56:49;;;;;;;14.07;2.80;;;;;;;2.42;83.27;99221.25;5012928;28;20148;-52
2021/01/31 08:59:39;;;;;;;10.25;2.10;;;;;;;2.40;83.12;99220.81;5013069;28;20064;-54
2021/01/31 09:02:14;;;;;;;6.68;2.08;;;;;;;2.39;83.88;99211.81;5014297;28;20053;-53
2021/01/31 09:04:44;;;;;;;6.78;2.38;;;;;;;2.40;83.68;99197.03;5013390;28;20053;-51
2021/01/31 09:07:19;;;;;;;5.47;2.42;;;;;;;2.40;83.68;99190.75;5014037;28;20070;-50
2021/01/31 09:10:05;;;;;;;14.32;3.17;;;;;;;2.34;83.93;99187.41;5013541;28;20456;-50
2021/01/31 09:12:32;;;;;;;7.22;2.15;;;;;;;2.36;83.57;99195.25;5012269;28;20036;-52
2021/01/31 09:15:07;;;;;;;7.95;2.15;;;;;;;2.36;84.19;99187.06;5013564;28;20554;-53
2021/01/31 09:17:34;;;;;;;11.52;3.67;;;;;;;2.34;84.29;99181.94;4998488;28;20045;-53
2021/01/31 09:20:10;;;;;;;8.10;1.80;;;;;;;2.34;84.48;99162.84;5017943;28;20045;-53
2021/01/31 09:23:04;;;;;;;11.50;3.83;;;;;;;2.38;85.02;99165.72;4998714;28;20499;-53
2021/01/31 09:25:35;;;;;;;7.47;2.20;;;;;;;2.36;84.94;99168.75;5012471;28;20072;-50
2021/01/31 09:28:30;;;;;;;4.68;1.65;;;;;;;2.34;84.84;99157.38;4992186;28;20124;-52
2021/01/31 09:31:00;;;;;;;6.88;2.08;;;;;;;2.30;84.92;99150.97;5015880;28;20120;-55
2021/01/31 09:33:31;;;;;;;15.02;2.47;;;;;;;2.29;84.65;99157.56;5017322;28;20065;-51
2021/01/31 09:36:21;;;;;;;9.15;2.03;;;;;;;2.25;85.94;99148.41;5009625;28;20034;-54
2021/01/31 09:38:49;;;;;;;14.77;2.00;;;;;;;2.29;84.97;99140.38;5018826;28;20037;-50
2021/01/31 09:41:20;;;;;;;9.55;2.00;;;;;;;2.30;85.08;99136.53;5017470;28;20077;-52
2021/01/31 09:43:52;;;;;;;24.30;2.78;;;;;;;2.28;85.45;99131.38;5015182;28;20080;-55
2021/01/31 09:46:21;;;;;;;9.02;2.95;;;;;;;2.30;85.29;99134.56;4993325;28;20046;-53
2021/01/31 09:49:02;;;;;;;11.32;2.47;;;;;;;2.26;85.24;99133.66;4993328;28;20460;-51
2021/01/31 09:51:29;;;;;;;9.77;2.40;;;;;;;2.29;85.42;99115.81;4991303;28;20038;-48
2021/01/31 09:54:21;;;;;;;5.60;1.90;;;;;;;2.25;86.41;99107.47;5009623;28;20053;-51
2021/01/31 09:56:55;;;;;;;;;;;;;;;2.25;86.64;99112.91;5009232;28;20045;-54
2021/01/31 09:59:33;;;;;;;6.68;1.90;;;;;;;2.23;86.18;99098.00;5001574;28;19924;-53
2021/01/31 10:02:10;;;;;;;9.95;2.45;;;;;;;2.21;86.63;99101.06;4995970;28;20041;-55
2021/01/31 10:04:38;;;;;;;6.88;2.60;;;;;;;2.23;85.67;99084.34;5010403;28;20052;-55
2021/01/31 10:07:12;;;;;;;8.00;2.45;;;;;;;2.27;86.09;99079.84;4992344;28;20074;-53
2021/01/31 10:09:41;;;;;;;5.68;1.63;;;;;;;2.25;86.13;99074.69;5010045;28;20051;-52
2021/01/31 10:12:29;;;;;;;5.13;1.75;;;;;;;2.22;86.80;99078.13;5010273;28;20507;-53
2021/01/31 10:14:58;;;;;;;8.35;2.35;;;;;;;2.22;86.38;99061.72;4995623;28;20056;-52
2021/01/31 10:17:30;;;;;;;7.10;1.73;;;;;;;2.22;86.57;99071.84;5007993;28;20141;-52
2021/01/31 10:20:31;;;;;;;10.75;2.28;;;;;;;2.21;86.88;99057.38;5020737;28;20053;-51
2021/01/31 10:23:11;;;;;;;13.63;2.65;;;;;;;2.21;86.90;99048.41;5010832;28;20041;-53
2021/01/31 10:25:41;;;;;;;9.38;2.25;;;;;;;2.22;86.38;99053.53;5010328;28;20080;-51
2021/01/31 10:28:11;;;;;;;7.05;2.10;;;;;;;2.23;86.70;99051.59;5021346;28;20399;-55
2021/01/31 10:30:39;;;;;;;7.75;1.50;;;;;;;2.24;86.74;99039.53;5028082;28;20053;-53
2021/01/31 10:33:07;;;;;;;9.23;2.20;;;;;;;2.24;86.89;99039.53;5010653;28;20049;-58
2021/01/31 10:35:37;;;;;;;11.68;2.75;;;;;;;2.28;86.79;99048.66;4996380;28;20476;-51
2021/01/31 10:38:26;;;;;;;7.50;1.95;;;;;;;2.29;87.68;99026.50;5014815;28;20476;-51
2021/01/31 10:40:52;;;;;;;4.38;2.25;;;;;;;2.30;86.96;99039.00;5011463;28;20037;-53
2021/01/31 10:43:23;;;;;;;8.60;2.42;;;;;;;2.31;87.17;99034.34;5006495;28;20038;-53
2021/01/31 10:45:49;;;;;;;6.82;1.58;;;;;;;2.32;87.21;99028.56;5000185;28;20040;-51
2021/01/31 10:48:16;;;;;;;14.10;2.05;;;;;;;2.34;87.02;99020.03;5011715;28;20045;-51
2021/01/31 10:50:42;;;;;;;7.97;2.47;;;;;;;2.37;86.67;99016.66;5018181;28;20526;-58
2021/01/31 10:53:08;;;;;;;9.10;1.98;;;;;;;2.40;86.93;99010.53;5018075;28;20780;-49
2021/01/31 10:55:35;;;;;;;17.88;2.70;;;;;;;2.43;87.25;99015.31;5016986;28;20063;-52
2021/01/31 10:58:01;;;;;;;5.28;1.38;;;;;;;2.41;87.60;99023.03;5011925;28;20124;-52
2021/01/31 11:00:27;;;;;;;11.75;2.00;;;;;;;2.43;87.31;99020.78;5027916;28;20121;-51
2021/01/31 11:02:53;;;;;;;5.65;1.70;;;;;;;2.43;87.56;99018.06;5019307;28;20041;-50
2021/01/31 11:05:21;;;;;;;9.75;1.73;;;;;;;2.43;87.30;99020.78;5013716;28;20046;-52
2021/01/31 11:07:49;;;;;;;4.75;1.95;;;;;;;2.44;87.25;99033.28;5004246;28;20041;-52
2021/01/31 11:10:18;;;;;;;11.35;2.00;;;;;;;2.40;87.37;99022.25;5020704;28;20045;-49
2021/01/31 11:12:45;;;;;;;2.72;1.35;;;;;;;2.32;87.29;99020.38;5025540;28;20052;-51
2021/01/31 11:15:13;;;;;;;13.00;3.08;;;;;;;2.32;87.41;99017.66;5022473;28;20124;-55
2021/01/31 11:17:40;;;;;;;12.35;3.47;;;;;;;2.34;87.71;99007.19;5013659;28;20048;-53
2021/01/31 11:20:07;;;;;;;7.72;3.08;;;;;;;2.38;87.29;99008.09;5025279;28;20346;-52
2021/01/31 11:22:35;;;;;;;11.13;2.08;;;;;;;2.39;87.67;99008.91;5011863;28;20555;-50
2021/01/31 11:25:03;;;;;;;7.65;1.88;;;;;;;2.36;87.70;98994.00;5018107;28;20134;-53
2021/01/31 11:27:30;;;;;;;5.95;2.65;;;;;;;2.39;87.35;98997.97;5007569;28;20056;-52
2021/01/31 11:29:56;;;;;;;5.38;2.15;;;;;;;2.39;87.89;98998.78;4991914;28;20045;-53
2021/01/31 11:32:23;;;;;;;9.18;2.67;;;;;;;2.40;87.90;98992.22;5007966;28;20116;-54
2021/01/31 11:34:49;;;;;;;10.38;2.22;;;;;;;2.41;87.45;98991.06;5007945;28;20041;-50
2021/01/31 11:37:16;;;;;;;15.75;3.22;;;;;;;2.39;87.89;98984.34;5007443;28;20054;-50
2021/01/31 11:39:42;;;;;;;7.15;2.20;;;;;;;2.41;87.45;98982.06;5007764;28;20045;-51
2021/01/31 11:42:08;;;;;;;11.02;2.42;;;;;;;2.44;87.75;98970.47;5007616;28;20045;-52
2021/01/31 11:44:35;;;;;;;11.02;3.03;;;;;;;2.47;87.48;98967.06;5008556;28;20070;-51
2021/01/31 11:47:01;;;;;;;8.85;2.78;;;;;;;2.45;88.06;98961.97;5007881;28;20058;-53
2021/01/31 11:49:27;;;;;;;3.85;2.05;;;;;;;2.44;87.67;98960.34;5007609;28;20056;-53
2021/01/31 11:51:53;;;;;;;7.63;3.00;;;;;;;2.46;87.65;98944.41;5008743;28;20086;-49
2021/01/31 11:54:20;;;;;;;8.15;2.00;;;;;;;2.47;88.03;98939.75;5014601;28;20046;-52
2021/01/31 11:56:46;;;;;;;7.00;2.17;;;;;;;2.47;88.11;98929.63;5015940;28;20046;-53
2021/01/31 11:59:12;;;;;;;5.97;1.80;;;;;;;2.50;88.30;98917.25;5009423;28;20052;-56
2021/01/31 12:01:39;;;;;;;7.00;2.33;;;;;;;2.49;88.24;98914.88;5020487;28;20045;-51
2021/01/31 12:04:07;;;;;;;10.68;2.47;;;;;;;2.49;87.92;98904.72;4989866;28;20412;-50
2021/01/31 12:06:33;;;;;;;12.50;3.50;;;;;;;2.50;88.27;98903.59;5022794;28;20430;-56
2021/01/31 12:09:00;;;;;;;14.98;5.07;;;;;;;2.51;88.19;98909.84;5009775;28;20081;-53
2021/01/31 12:11:27;;;;;;;15.38;6.20;;;;;;;2.50;88.22;98895.41;5020491;28;20051;-51
2021/01/31 12:13:55;;;;;;;17.27;6.78;;;;;;;2.52;88.07;98900.50;5010497;28;20124;-54
2021/01/31 12:16:22;;;;;;;20.05;8.07;;;;;;;2.57;88.27;98889.41;5017787;28;20140;-51